Time;durP1;ratioP1;P1;durP2;ratioP2;P2;SDS_P1;SDS_P2;PMS_P1;PMS_P2;Temp;Humidity;BMP_temperature;BMP_pressure;BME280_temperature;BME280_humidity;BME280_pressure;Samples;Min_cycle;Max_cycle;Signal;HPM_P1;HPM_P2
2021/12/22 00:01:27;;;;;;;31.08;19.55;;;-2.90;99.90;;;;;;4950594;29;20154;-66
2021/12/22 00:03:54;;;;;;;29.60;20.13;;;-2.90;99.90;;;;;;4950317;28;20090;-66
2021/12/22 00:06:23;;;;;;;28.30;17.85;;;-3.00;99.90;;;;;;4982802;28;20082;-66
2021/12/22 00:08:50;;;;;;;30.65;18.88;;;-3.00;99.90;;;;;;4950571;28;20047;-66
2021/12/22 00:11:17;;;;;;;30.77;19.20;;;-3.00;99.90;;;;;;4934552;29;20039;-66
2021/12/22 00:13:44;;;;;;;31.85;17.83;;;-3.10;99.90;;;;;;4948203;29;20433;-66
2021/12/22 00:16:10;;;;;;;32.75;18.73;;;-3.10;99.90;;;;;;4955574;28;20066;-66
2021/12/22 00:18:36;;;;;;;30.88;18.40;;;-3.10;99.90;;;;;;4972912;28;20129;-66
2021/12/22 00:21:03;;;;;;;25.63;17.85;;;-3.10;99.90;;;;;;4988697;28;20050;-66
2021/12/22 00:23:29;;;;;;;26.85;18.48;;;-3.20;99.90;;;;;;5005244;28;20038;-66
2021/12/22 00:25:54;;;;;;;27.58;18.15;;;-3.20;99.90;;;;;;5005030;28;20046;-66
2021/12/22 00:28:20;;;;;;;26.50;17.58;;;-3.20;99.90;;;;;;4988912;28;20048;-65
2021/12/22 00:30:47;;;;;;;27.67;19.92;;;-3.30;99.90;;;;;;4988842;28;20141;-66
2021/12/22 00:33:13;;;;;;;27.60;17.80;;;-3.30;99.90;;;;;;4988912;28;20095;-66
2021/12/22 00:35:43;;;;;;;24.08;16.55;;;-3.30;99.90;;;;;;5004683;28;20517;-66
2021/12/22 00:38:16;;;;;;;21.33;14.30;;;-3.20;99.90;;;;;;5007167;28;20372;-66
2021/12/22 00:40:42;;;;;;;30.58;18.80;;;-3.20;99.90;;;;;;4991694;28;20052;-66
2021/12/22 00:43:08;;;;;;;27.20;18.60;;;-3.20;99.90;;;;;;5005901;28;20087;-66
2021/12/22 00:45:36;;;;;;;27.33;18.88;;;-3.20;99.90;;;;;;5024761;28;20537;-66
2021/12/22 00:48:03;;;;;;;23.92;16.85;;;-3.20;99.90;;;;;;4992032;28;20030;-66
2021/12/22 00:50:29;;;;;;;21.55;16.48;;;-3.30;99.90;;;;;;4991523;28;20050;-66
2021/12/22 00:52:55;;;;;;;26.75;16.52;;;-3.30;99.90;;;;;;5007998;28;20050;-66
2021/12/22 00:55:21;;;;;;;29.95;17.83;;;-3.30;99.90;;;;;;4991691;28;20128;-66
2021/12/22 00:57:49;;;;;;;29.42;18.08;;;-3.30;99.90;;;;;;4991867;28;20041;-66
2021/12/22 01:00:16;;;;;;;32.75;19.70;;;-3.30;99.90;;;;;;5007787;28;20045;-66
2021/12/22 01:02:44;;;;;;;31.65;20.38;;;-3.30;99.90;;;;;;4991552;28;20528;-66
2021/12/22 01:05:12;;;;;;;30.23;19.67;;;-3.30;99.90;;;;;;5024088;28;20508;-66
2021/12/22 01:07:39;;;;;;;26.50;18.85;;;-3.30;99.90;;;;;;5024231;28;20077;-66
2021/12/22 01:10:07;;;;;;;36.38;20.60;;;-3.40;99.90;;;;;;4991404;28;20103;-66
2021/12/22 01:12:33;;;;;;;35.90;21.33;;;-3.40;99.90;;;;;;4975425;28;20435;-66
2021/12/22 01:14:59;;;;;;;35.80;21.50;;;-3.40;99.90;;;;;;5024240;28;20585;-66
2021/12/22 01:17:25;;;;;;;32.30;21.35;;;-3.40;99.90;;;;;;4994571;28;20057;-66
2021/12/22 01:20:03;;;;;;;38.95;21.25;;;-3.30;99.90;;;;;;4994679;28;20182;-66
2021/12/22 01:23:02;;;;;;;31.10;20.08;;;-3.30;99.90;;;;;;4994622;28;20501;-67
2021/12/22 01:25:22;;;;;;;34.28;21.00;;;-3.20;99.90;;;;;;4995449;28;20076;-66
2021/12/22 01:27:49;;;;;;;33.55;20.85;;;-3.20;99.90;;;;;;4994543;28;20042;-66
2021/12/22 01:30:21;;;;;;;36.13;22.40;;;-3.10;99.90;;;;;;4994840;28;20478;-66
2021/12/22 01:32:49;;;;;;;31.58;21.25;;;-3.10;99.90;;;;;;4994956;28;20042;-66
2021/12/22 01:35:18;;;;;;;31.05;19.13;;;-3.10;99.90;;;;;;4994853;28;20393;-67
2021/12/22 01:37:44;;;;;;;32.95;18.83;;;-3.10;99.90;;;;;;5010885;28;20069;-66
2021/12/22 01:40:12;;;;;;;27.85;18.27;;;-3.10;99.90;;;;;;5009153;28;20042;-66
2021/12/22 01:42:40;;;;;;;26.70;17.10;;;-3.10;99.90;;;;;;4990971;28;20046;-66
2021/12/22 01:50:31;;;;;;;27.35;16.33;;;-3.20;99.90;;;;;;5007427;28;20238;-66
2021/12/22 01:52:59;;;;;;;29.02;16.95;;;-3.20;99.90;;;;;;5007276;28;20127;-67
2021/12/22 01:55:34;;;;;;;27.52;16.55;;;-3.30;99.90;;;;;;4990992;28;20042;-67
2021/12/22 01:58:01;;;;;;;22.38;16.27;;;-3.30;99.90;;;;;;5007488;28;20078;-67
2021/12/22 02:00:29;;;;;;;23.48;15.65;;;-3.30;99.90;;;;;;5007272;28;20121;-66
2021/12/22 02:02:56;;;;;;;24.15;15.00;;;-3.30;99.90;;;;;;4958742;28;20448;-66
2021/12/22 02:05:23;;;;;;;27.70;16.33;;;-3.40;99.90;;;;;;4974636;28;20042;-66
2021/12/22 02:07:49;;;;;;;34.92;18.35;;;-3.40;99.90;;;;;;5006996;28;20506;-66
2021/12/22 02:10:37;;;;;;;26.38;17.13;;;-3.40;99.90;;;;;;5007099;28;20092;-67
2021/12/22 02:13:04;;;;;;;28.58;18.63;;;-3.50;99.90;;;;;;5005856;28;20047;-67
2021/12/22 02:15:34;;;;;;;31.15;18.60;;;-3.50;99.90;;;;;;4973668;28;20042;-67
2021/12/22 02:18:02;;;;;;;32.42;19.23;;;-3.50;99.90;;;;;;4958033;28;20056;-66
2021/12/22 02:20:28;;;;;;;41.90;20.48;;;-3.40;99.90;;;;;;4990602;28;20054;-67
2021/12/22 02:22:55;;;;;;;37.60;19.02;;;-3.40;99.90;;;;;;5006736;28;20042;-67
2021/12/22 02:25:30;;;;;;;34.72;20.23;;;-3.30;99.90;;;;;;5005910;28;20045;-67
2021/12/22 02:27:56;;;;;;;32.85;19.77;;;-3.30;99.90;;;;;;5006742;28;20078;-66
2021/12/22 02:30:26;;;;;;;35.20;21.48;;;-3.20;99.90;;;;;;4990738;28;20394;-67
2021/12/22 02:35:26;;;;;;;29.90;18.08;;;-3.20;99.90;;;;;;5006945;28;20054;-67
2021/12/22 02:37:52;;;;;;;28.85;18.27;;;-3.20;99.90;;;;;;4990513;28;20038;-67
2021/12/22 02:40:24;;;;;;;29.42;19.17;;;-3.20;99.90;;;;;;5026022;28;20566;-67
2021/12/22 02:42:54;;;;;;;30.65;18.92;;;-3.20;99.90;;;;;;4993753;28;20123;-67
2021/12/22 02:45:21;;;;;;;35.92;19.30;;;-3.10;99.90;;;;;;4991094;28;20305;-67
2021/12/22 02:47:47;;;;;;;29.20;18.70;;;-3.20;99.90;;;;;;4993435;28;20091;-67
2021/12/22 02:50:15;;;;;;;28.30;17.15;;;-3.10;99.90;;;;;;4993482;28;20070;-67
2021/12/22 02:55:40;;;;;;;21.17;14.18;;;-3.10;99.90;;;;;;4993346;28;20049;-67
2021/12/22 02:58:06;;;;;;;31.25;16.92;;;-3.20;99.90;;;;;;5025980;28;20038;-67
2021/12/22 03:00:47;;;;;;;26.92;16.08;;;-3.20;99.90;;;;;;4993312;28;20129;-67
2021/12/22 03:03:47;;;;;;;26.38;15.93;;;-3.30;99.90;;;;;;4993286;28;20105;-67
2021/12/22 03:06:07;;;;;;;25.08;15.10;;;-3.30;99.90;;;;;;4994752;28;20133;-67
2021/12/22 03:08:33;;;;;;;28.88;17.85;;;-3.40;99.90;;;;;;4993048;28;20129;-67
2021/12/22 03:10:59;;;;;;;23.55;14.75;;;-3.40;99.90;;;;;;5026178;28;20141;-67
2021/12/22 03:13:24;;;;;;;28.52;16.55;;;-3.40;99.90;;;;;;4990535;28;20058;-67
2021/12/22 03:15:50;;;;;;;25.20;15.23;;;-3.40;99.90;;;;;;5025987;28;20046;-67
2021/12/22 03:18:17;;;;;;;25.52;15.20;;;-3.40;99.90;;;;;;4992894;28;20088;-67
2021/12/22 03:20:49;;;;;;;29.85;15.90;;;-3.50;99.90;;;;;;4992899;28;20490;-67
2021/12/22 03:23:15;;;;;;;24.38;15.57;;;-3.50;99.90;;;;;;4992981;28;20056;-67
2021/12/22 03:25:41;;;;;;;27.75;15.25;;;-3.60;99.90;;;;;;4992933;28;20414;-66
2021/12/22 03:28:07;;;;;;;26.50;16.42;;;-3.70;99.90;;;;;;4976662;28;20037;-67
2021/12/22 03:30:34;;;;;;;30.65;16.45;;;-3.70;99.90;;;;;;4992851;28;20052;-67
2021/12/22 03:33:00;;;;;;;25.35;16.35;;;-3.70;99.90;;;;;;4992695;28;20076;-67
2021/12/22 03:35:25;;;;;;;29.00;16.45;;;-3.70;99.90;;;;;;4992665;28;20073;-67
2021/12/22 03:37:55;;;;;;;30.50;18.38;;;-3.70;99.90;;;;;;5025316;28;20034;-67
2021/12/22 03:40:22;;;;;;;29.98;17.70;;;-3.70;99.90;;;;;;4973288;28;20039;-67
2021/12/22 03:42:49;;;;;;;33.72;18.20;;;-3.60;99.90;;;;;;4973169;28;20070;-67
2021/12/22 03:45:16;;;;;;;29.98;17.42;;;-3.70;99.90;;;;;;4970651;28;20046;-67
2021/12/22 03:47:43;;;;;;;32.42;17.13;;;-3.70;99.90;;;;;;4973325;28;20393;-67
2021/12/22 03:50:10;;;;;;;30.67;17.85;;;-3.70;99.90;;;;;;4973485;28;20043;-67
2021/12/22 03:52:36;;;;;;;30.38;16.10;;;-3.60;99.90;;;;;;4972986;28;20074;-67
2021/12/22 03:55:03;;;;;;;29.92;16.65;;;-3.60;99.90;;;;;;4973223;28;20050;-67
2021/12/22 03:57:29;;;;;;;31.30;16.38;;;-3.60;99.90;;;;;;4972876;28;20095;-67
2021/12/22 03:59:58;;;;;;;33.17;17.42;;;-3.60;99.90;;;;;;4973025;28;20042;-67
2021/12/22 04:02:25;;;;;;;32.42;17.65;;;-3.60;99.90;;;;;;4972826;28;20135;-67
2021/12/22 04:04:52;;;;;;;27.67;17.13;;;-3.60;99.90;;;;;;4973014;28;20053;-67
2021/12/22 04:07:18;;;;;;;28.88;16.75;;;-3.60;99.90;;;;;;4972782;28;20050;-66
2021/12/22 04:09:45;;;;;;;29.52;17.40;;;-3.60;99.90;;;;;;4972957;28;20045;-67
2021/12/22 04:12:11;;;;;;;32.70;16.90;;;-3.60;99.90;;;;;;4973076;28;20085;-67
2021/12/22 04:14:37;;;;;;;33.33;18.75;;;-3.60;99.90;;;;;;4970594;28;20046;-67
2021/12/22 04:17:03;;;;;;;30.10;16.48;;;-3.60;99.90;;;;;;4959513;28;20503;-67
2021/12/22 04:19:30;;;;;;;35.22;17.75;;;-3.60;99.90;;;;;;4934515;29;20087;-67
2021/12/22 04:21:56;;;;;;;29.85;17.20;;;-3.60;99.90;;;;;;4950350;29;20039;-67
2021/12/22 04:24:22;;;;;;;28.52;16.90;;;-3.70;99.90;;;;;;4950119;29;20407;-67
2021/12/22 04:26:51;;;;;;;33.33;17.90;;;-3.70;99.90;;;;;;4950124;29;20058;-67
2021/12/22 04:29:17;;;;;;;28.13;16.50;;;-3.70;99.90;;;;;;4934091;29;20078;-66
2021/12/22 04:31:43;;;;;;;28.48;17.70;;;-3.70;99.90;;;;;;4950268;29;20039;-67
2021/12/22 04:34:09;;;;;;;31.30;18.17;;;-3.70;99.90;;;;;;4950127;28;20066;-67
2021/12/22 04:36:40;;;;;;;28.88;17.08;;;-3.70;99.90;;;;;;4950245;29;20051;-67
2021/12/22 04:39:07;;;;;;;;;;;-3.70;99.90;;;;;;4934577;29;20046;-67
2021/12/22 04:41:33;;;;;;;34.03;17.50;;;-3.60;99.90;;;;;;4949983;29;20378;-67
2021/12/22 04:43:59;;;;;;;34.30;17.15;;;-3.60;99.90;;;;;;4947303;29;20054;-67
2021/12/22 04:46:25;;;;;;;33.22;19.42;;;-3.60;99.90;;;;;;4950075;29;20047;-67
2021/12/22 04:48:51;;;;;;;34.95;19.15;;;-3.60;99.90;;;;;;4948964;28;20462;-66
2021/12/22 04:51:29;;;;;;;34.40;18.42;;;-3.60;99.90;;;;;;4950083;28;20130;-67
2021/12/22 04:54:06;;;;;;;29.95;17.02;;;-3.60;99.90;;;;;;4950000;29;20422;-67
2021/12/22 04:56:32;;;;;;;31.08;17.70;;;-3.60;99.90;;;;;;4949738;29;20488;-67
2021/12/22 04:58:58;;;;;;;29.45;17.20;;;-3.60;99.90;;;;;;4949716;28;20043;-66
2021/12/22 05:01:24;;;;;;;27.20;17.08;;;-3.70;99.90;;;;;;4933744;29;20048;-67
2021/12/22 05:03:50;;;;;;;31.92;17.85;;;-3.70;99.90;;;;;;4949622;28;20073;-67
2021/12/22 05:06:15;;;;;;;32.88;17.10;;;-3.60;99.90;;;;;;4933680;29;20100;-66
2021/12/22 05:08:41;;;;;;;32.63;17.17;;;-3.70;99.90;;;;;;4949540;29;20069;-67
2021/12/22 05:11:07;;;;;;;39.53;18.95;;;-3.70;99.90;;;;;;4949746;28;20051;-67
2021/12/22 05:13:34;;;;;;;33.38;18.60;;;-3.70;99.90;;;;;;4947205;28;20070;-67
2021/12/22 05:16:03;;;;;;;32.50;17.88;;;-3.70;99.90;;;;;;4952232;28;20609;-66
2021/12/22 05:19:14;;;;;;;31.17;18.08;;;-3.70;99.90;;;;;;5004162;28;20059;-66
2021/12/22 05:21:21;;;;;;;31.92;17.35;;;-3.70;99.90;;;;;;4969326;28;20402;-66
2021/12/22 05:23:48;;;;;;;31.35;18.42;;;-3.80;99.90;;;;;;4972163;28;20035;-66
2021/12/22 05:26:14;;;;;;;31.60;17.35;;;-3.70;99.90;;;;;;4971870;28;20043;-66
2021/12/22 05:28:40;;;;;;;32.00;17.88;;;-3.70;99.90;;;;;;4971733;28;20507;-67
2021/12/22 05:31:05;;;;;;;28.83;16.20;;;-3.70;99.90;;;;;;5004240;28;20042;-66
2021/12/22 05:33:31;;;;;;;27.85;16.90;;;-3.70;99.90;;;;;;4971641;28;20142;-66
2021/12/22 05:35:57;;;;;;;28.92;16.77;;;-3.70;99.90;;;;;;4971692;28;20038;-66
2021/12/22 05:38:23;;;;;;;32.83;17.10;;;-3.70;99.90;;;;;;5007899;28;20038;-66
2021/12/22 05:40:49;;;;;;;28.48;16.42;;;-3.80;99.90;;;;;;5007755;28;20401;-66
2021/12/22 05:43:15;;;;;;;31.77;17.40;;;-3.80;99.90;;;;;;4988600;28;20056;-66
2021/12/22 05:45:40;;;;;;;33.45;19.00;;;-3.80;99.90;;;;;;5007600;28;20050;-66
2021/12/22 05:48:07;;;;;;;28.67;16.13;;;-3.80;99.90;;;;;;4991021;28;20558;-66
2021/12/22 05:50:32;;;;;;;33.33;17.08;;;-3.80;99.90;;;;;;5023598;28;20042;-66
2021/12/22 05:52:58;;;;;;;29.65;16.80;;;-3.80;99.90;;;;;;4990892;28;20095;-67
2021/12/22 05:55:24;;;;;;;31.05;18.05;;;-3.80;99.90;;;;;;4990847;28;20042;-67
2021/12/22 05:57:50;;;;;;;31.83;18.30;;;-3.70;99.90;;;;;;4990855;28;20137;-67
2021/12/22 06:00:16;;;;;;;28.58;16.17;;;-3.70;99.90;;;;;;5024863;28;20133;-67
2021/12/22 06:02:42;;;;;;;28.98;16.15;;;-3.80;99.90;;;;;;4994201;28;20458;-67
2021/12/22 06:05:09;;;;;;;29.77;16.60;;;-3.80;99.90;;;;;;5026747;28;20034;-67
2021/12/22 06:07:35;;;;;;;30.85;15.88;;;-3.80;99.90;;;;;;4993983;28;20049;-67
2021/12/22 06:10:01;;;;;;;34.35;18.48;;;-3.80;99.90;;;;;;4993893;28;20049;-66
2021/12/22 06:12:26;;;;;;;39.38;17.92;;;-3.80;99.90;;;;;;4994276;28;20390;-67
2021/12/22 06:14:52;;;;;;;28.80;16.75;;;-3.80;99.90;;;;;;5008202;28;20049;-67
2021/12/22 06:17:18;;;;;;;30.50;17.77;;;-3.90;99.90;;;;;;5013516;28;20059;-67
2021/12/22 06:19:44;;;;;;;30.05;17.02;;;-3.90;99.90;;;;;;4955060;28;20051;-66
2021/12/22 06:22:10;;;;;;;35.15;17.88;;;-3.90;99.90;;;;;;5003699;28;20050;-66
2021/12/22 06:24:35;;;;;;;34.70;17.75;;;-3.90;99.90;;;;;;5003578;28;20088;-66
2021/12/22 06:27:01;;;;;;;29.15;16.92;;;-3.90;99.90;;;;;;5003718;28;20046;-66
2021/12/22 06:29:27;;;;;;;32.63;17.52;;;-3.90;99.90;;;;;;4955273;28;20042;-66
2021/12/22 06:31:53;;;;;;;27.77;16.00;;;-3.90;99.90;;;;;;4971473;28;20088;-66
2021/12/22 06:34:19;;;;;;;31.60;16.10;;;-3.90;99.90;;;;;;4971149;28;20047;-66
2021/12/22 06:36:45;;;;;;;33.50;17.92;;;-3.90;99.90;;;;;;4971221;28;20494;-66
2021/12/22 06:39:11;;;;;;;29.20;16.98;;;-4.00;99.90;;;;;;4971352;28;20392;-66
2021/12/22 06:41:36;;;;;;;29.77;16.73;;;-4.00;99.90;;;;;;4971296;28;20055;-66
2021/12/22 06:44:03;;;;;;;30.90;16.40;;;-4.00;99.90;;;;;;4968387;28;20694;-66
2021/12/22 06:46:28;;;;;;;32.13;16.60;;;-4.00;99.90;;;;;;4970864;28;20039;-66
2021/12/22 06:48:54;;;;;;;33.20;17.30;;;-4.00;99.90;;;;;;4971264;28;20183;-67
2021/12/22 06:51:20;;;;;;;32.97;17.10;;;-4.00;99.90;;;;;;4970709;28;20047;-67
2021/12/22 06:53:46;;;;;;;31.70;17.42;;;-4.10;99.90;;;;;;4971024;28;20054;-67
2021/12/22 06:56:12;;;;;;;30.52;18.02;;;-4.10;99.90;;;;;;4954551;28;20454;-67
2021/12/22 06:58:37;;;;;;;28.10;16.60;;;-4.10;99.90;;;;;;4970717;28;20047;-66
2021/12/22 07:01:03;;;;;;;30.00;17.33;;;-4.10;99.90;;;;;;4954481;28;20043;-66
2021/12/22 07:03:29;;;;;;;35.67;17.52;;;-4.10;99.90;;;;;;4970501;28;20039;-67
2021/12/22 07:05:55;;;;;;;33.03;16.77;;;-4.10;99.90;;;;;;4970663;28;20053;-66
2021/12/22 07:08:21;;;;;;;30.55;16.52;;;-4.10;99.90;;;;;;4970577;28;20503;-66
2021/12/22 07:10:47;;;;;;;36.15;16.20;;;-4.10;99.90;;;;;;4970448;28;20047;-66
2021/12/22 07:13:14;;;;;;;33.33;16.70;;;-4.20;99.90;;;;;;4952064;28;20039;-66
2021/12/22 07:15:43;;;;;;;31.35;16.88;;;-4.20;99.90;;;;;;4970630;28;20062;-66
2021/12/22 07:18:11;;;;;;;33.45;17.15;;;-4.20;99.90;;;;;;4970257;28;20050;-66
2021/12/22 07:20:37;;;;;;;30.83;17.15;;;-4.20;99.90;;;;;;4970517;28;20046;-66
2021/12/22 07:23:03;;;;;;;31.35;17.50;;;-4.20;99.90;;;;;;4954392;28;20034;-66
2021/12/22 07:25:30;;;;;;;33.53;18.05;;;-4.20;99.90;;;;;;4970093;28;20043;-67
2021/12/22 07:27:55;;;;;;;28.73;16.63;;;-4.20;99.90;;;;;;4970253;28;20046;-66
2021/12/22 07:30:21;;;;;;;34.28;16.77;;;-4.20;99.90;;;;;;4970322;28;20049;-66
2021/12/22 07:32:48;;;;;;;30.10;16.20;;;-4.20;99.90;;;;;;4970267;28;20054;-66
2021/12/22 07:35:24;;;;;;;31.35;17.75;;;-4.20;99.90;;;;;;4970239;28;20623;-66
2021/12/22 07:38:41;;;;;;;32.67;17.02;;;-4.20;99.90;;;;;;4970279;28;20274;-66
2021/12/22 07:41:09;;;;;;;29.85;17.20;;;-4.20;99.90;;;;;;4898912;29;20048;-66
2021/12/22 07:43:36;;;;;;;33.70;16.38;;;-4.20;99.90;;;;;;4948487;29;20531;-66
2021/12/22 07:46:03;;;;;;;32.58;17.98;;;-4.20;99.90;;;;;;4950657;29;20047;-66
2021/12/22 07:48:29;;;;;;;27.77;16.10;;;-4.10;99.90;;;;;;4950918;28;20395;-66
2021/12/22 07:50:55;;;;;;;29.42;17.35;;;-4.10;99.90;;;;;;4950599;28;20110;-67
2021/12/22 07:53:21;;;;;;;30.52;16.13;;;-4.10;99.90;;;;;;4950600;29;20039;-66
2021/12/22 07:55:47;;;;;;;27.60;16.33;;;-4.10;99.90;;;;;;4934575;29;20043;-66
2021/12/22 07:58:14;;;;;;;32.28;18.10;;;-4.10;99.90;;;;;;4934518;29;20040;-66
2021/12/22 08:00:40;;;;;;;31.63;17.30;;;-4.10;99.90;;;;;;4950376;28;20047;-67
2021/12/22 08:03:06;;;;;;;31.88;17.13;;;-4.10;99.90;;;;;;4950447;28;20051;-66
2021/12/22 08:05:32;;;;;;;31.38;16.42;;;-4.10;99.90;;;;;;4950319;28;20051;-66
2021/12/22 08:07:59;;;;;;;33.58;17.85;;;-4.00;99.90;;;;;;4934485;29;20122;-66
2021/12/22 08:10:25;;;;;;;30.25;16.38;;;-4.00;99.90;;;;;;4950223;28;20104;-66
2021/12/22 08:12:51;;;;;;;27.75;14.55;;;-4.00;99.90;;;;;;4934406;29;20050;-66
2021/12/22 08:15:17;;;;;;;32.45;15.90;;;-3.90;99.90;;;;;;4947968;29;20137;-66
2021/12/22 08:17:43;;;;;;;34.00;15.48;;;-3.90;99.90;;;;;;4963316;28;20093;-66
2021/12/22 08:20:09;;;;;;;33.40;15.82;;;-3.80;99.90;;;;;;4953379;28;20096;-67
2021/12/22 08:22:35;;;;;;;30.20;16.38;;;-3.80;99.90;;;;;;4969717;28;20042;-66
2021/12/22 08:25:03;;;;;;;30.88;14.95;;;-3.70;99.90;;;;;;4968315;28;20402;-66
2021/12/22 08:27:28;;;;;;;31.65;16.20;;;-3.60;99.90;;;;;;4969329;28;20039;-66
2021/12/22 08:29:55;;;;;;;38.67;17.55;;;-3.50;99.90;;;;;;4953436;28;20047;-66
2021/12/22 08:32:20;;;;;;;34.38;17.55;;;-3.40;99.90;;;;;;5001857;28;20062;-66
2021/12/22 08:34:52;;;;;;;26.38;14.65;;;-3.30;99.90;;;;;;4970304;28;20402;-67
2021/12/22 08:40:03;;;;;;;33.00;15.77;;;-3.10;99.90;;;;;;4986870;28;20608;-66
2021/12/22 08:42:29;;;;;;;28.92;14.55;;;-3.00;99.90;;;;;;4989672;28;20403;-67
2021/12/22 08:44:55;;;;;;;33.15;15.00;;;-3.00;99.90;;;;;;4971147;28;20050;-66
2021/12/22 08:47:21;;;;;;;27.80;14.95;;;-2.90;99.90;;;;;;4973178;28;20038;-66
2021/12/22 08:49:47;;;;;;;26.63;14.85;;;-2.80;99.90;;;;;;4973488;28;20122;-66
2021/12/22 08:52:13;;;;;;;29.20;14.40;;;-2.80;99.90;;;;;;4989118;28;20050;-67
2021/12/22 08:54:39;;;;;;;27.63;15.60;;;-2.80;99.90;;;;;;4973174;28;20050;-67
2021/12/22 08:57:06;;;;;;;30.65;14.90;;;-2.80;99.90;;;;;;4989143;28;20058;-67
2021/12/22 08:59:32;;;;;;;35.88;17.25;;;-2.70;99.90;;;;;;4989200;28;20050;-67
2021/12/22 09:01:58;;;;;;;34.20;16.42;;;-2.60;99.90;;;;;;4989225;28;20100;-66
2021/12/22 09:04:24;;;;;;;30.05;15.75;;;-2.50;99.90;;;;;;4989046;28;20058;-66
2021/12/22 09:06:51;;;;;;;29.58;13.95;;;-2.40;99.90;;;;;;4989394;28;20042;-67
2021/12/22 09:09:18;;;;;;;36.55;16.52;;;-2.30;99.90;;;;;;4989392;28;20042;-66
2021/12/22 09:11:44;;;;;;;33.88;16.67;;;-2.20;99.90;;;;;;4972912;28;20058;-66
2021/12/22 09:14:11;;;;;;;30.80;14.68;;;-2.20;99.90;;;;;;4987020;28;20046;-66
2021/12/22 09:16:38;;;;;;;25.33;13.98;;;-2.20;99.90;;;;;;4984933;28;20051;-66
2021/12/22 09:19:05;;;;;;;23.40;13.77;;;-1.90;99.90;;;;;;4953698;28;20050;-66
2021/12/22 09:21:32;;;;;;;25.92;13.52;;;-1.50;99.90;;;;;;4969746;28;20059;-67
2021/12/22 09:23:58;;;;;;;29.33;16.15;;;-1.10;99.90;;;;;;4969452;28;20487;-66
2021/12/22 09:26:24;;;;;;;26.02;13.38;;;-0.70;99.90;;;;;;4968795;28;20039;-66
2021/12/22 09:28:51;;;;;;;27.48;14.00;;;-0.30;99.90;;;;;;4969451;28;20038;-66
2021/12/22 09:31:17;;;;;;;26.30;14.23;;;-0.10;99.90;;;;;;4969588;28;20042;-66
2021/12/22 09:33:43;;;;;;;22.40;13.40;;;0.10;99.90;;;;;;4969652;28;20054;-67
2021/12/22 09:36:11;;;;;;;24.42;13.43;;;0.30;99.90;;;;;;4955688;28;20050;-66
2021/12/22 09:38:38;;;;;;;21.35;12.15;;;0.80;99.90;;;;;;4972629;28;20038;-66
2021/12/22 09:41:04;;;;;;;23.98;14.35;;;1.30;99.90;;;;;;4989061;28;20047;-66
2021/12/22 09:43:30;;;;;;;23.92;11.95;;;1.60;99.90;;;;;;4954293;28;20047;-66
2021/12/22 09:46:02;;;;;;;24.23;12.95;;;1.90;99.90;;;;;;4956712;28;20046;-66
2021/12/22 09:53:30;;;;;;;19.83;11.80;;;1.80;99.90;;;;;;5005085;28;20130;-66
2021/12/22 09:55:58;;;;;;;22.75;13.77;;;1.70;99.90;;;;;;4972499;28;20039;-67
2021/12/22 09:58:25;;;;;;;20.00;12.68;;;2.10;99.90;;;;;;4955943;28;20047;-67
2021/12/22 10:00:52;;;;;;;22.33;12.32;;;2.80;99.90;;;;;;5004029;28;20499;-67
2021/12/22 10:03:20;;;;;;;23.35;13.75;;;3.50;99.90;;;;;;5003847;28;20053;-67
2021/12/22 10:05:46;;;;;;;23.15;13.10;;;3.70;99.90;;;;;;4955484;28;20042;-68
2021/12/22 10:08:18;;;;;;;22.30;12.23;;;3.50;99.90;;;;;;4971358;28;20038;-68
2021/12/22 10:10:47;;;;;;;23.38;11.88;;;3.20;99.90;;;;;;5003962;28;20092;-67
2021/12/22 10:13:16;;;;;;;22.25;12.75;;;2.80;99.90;;;;;;4969922;28;20074;-67
2021/12/22 10:15:42;;;;;;;21.92;12.85;;;2.30;99.90;;;;;;4970389;28;20093;-67
2021/12/22 10:18:14;;;;;;;22.10;12.50;;;1.80;99.90;;;;;;4984541;28;20379;-68
2021/12/22 10:20:42;;;;;;;22.27;11.38;;;1.50;99.90;;;;;;4990961;28;20510;-67
2021/12/22 10:23:26;;;;;;;25.38;12.30;;;1.20;99.90;;;;;;4989755;28;20046;-67
2021/12/22 10:26:00;;;;;;;24.38;14.63;;;0.90;99.90;;;;;;5087115;28;20071;-67
2021/12/22 10:28:28;;;;;;;23.55;12.45;;;0.70;99.90;;;;;;5076239;28;20085;-67
2021/12/22 10:30:58;;;;;;;24.45;13.40;;;0.60;99.90;;;;;;5093444;28;20097;-67
2021/12/22 10:33:27;;;;;;;25.53;13.27;;;0.70;99.90;;;;;;5076515;28;20032;-67
2021/12/22 10:35:55;;;;;;;25.00;14.15;;;0.90;99.90;;;;;;5093334;28;20622;-67
2021/12/22 10:38:26;;;;;;;17.67;11.80;;;1.10;99.90;;;;;;5075941;28;20551;-67
2021/12/22 10:40:55;;;;;;;27.75;15.00;;;1.40;99.90;;;;;;5001614;28;20506;-67
2021/12/22 10:43:27;;;;;;;23.05;13.43;;;1.70;99.90;;;;;;5073407;28;20500;-67
2021/12/22 10:45:59;;;;;;;22.05;13.57;;;1.90;99.90;;;;;;5044053;28;20057;-67
2021/12/22 10:51:28;;;;;;;22.25;13.23;;;1.80;99.90;;;;;;5000031;28;20053;-67
2021/12/22 10:53:56;;;;;;;27.80;14.25;;;1.50;99.90;;;;;;4990288;28;20403;-67
2021/12/22 10:56:40;;;;;;;20.90;12.50;;;1.30;99.90;;;;;;4990307;28;20047;-67
2021/12/22 10:59:19;;;;;;;24.15;14.10;;;1.20;99.90;;;;;;5082066;28;20044;-67
2021/12/22 11:01:56;;;;;;;19.93;11.27;;;1.20;99.90;;;;;;5092474;28;20091;-67
2021/12/22 11:04:30;;;;;;;23.92;14.23;;;1.20;99.90;;;;;;5092322;28;20043;-67
2021/12/22 11:07:07;;;;;;;26.92;13.73;;;1.20;99.90;;;;;;5092414;28;20044;-67
2021/12/22 11:09:36;;;;;;;23.10;13.30;;;1.30;99.90;;;;;;5092689;28;20071;-67
2021/12/22 11:12:04;;;;;;;24.70;14.00;;;1.30;99.90;;;;;;5092246;28;20036;-67
2021/12/22 11:14:38;;;;;;;20.60;12.20;;;1.20;99.90;;;;;;5089707;28;20037;-67
2021/12/22 11:17:13;;;;;;;21.65;13.45;;;1.30;99.90;;;;;;5084020;28;20084;-67
2021/12/22 11:20:05;;;;;;;22.95;13.10;;;1.30;99.90;;;;;;5071812;28;20063;-67
2021/12/22 11:23:03;;;;;;;20.25;12.07;;;1.40;99.90;;;;;;5071882;28;20056;-68
2021/12/22 11:25:30;;;;;;;20.95;12.43;;;1.50;99.90;;;;;;5071635;28;20086;-68
2021/12/22 11:27:57;;;;;;;24.63;14.90;;;1.60;99.90;;;;;;5071814;28;20105;-67
2021/12/22 11:30:26;;;;;;;24.02;12.13;;;1.70;99.90;;;;;;5071727;28;20075;-67
2021/12/22 11:32:55;;;;;;;24.08;12.00;;;1.50;99.90;;;;;;5071766;28;20492;-67
2021/12/22 11:35:22;;;;;;;22.40;13.60;;;1.40;99.90;;;;;;4991496;28;20380;-67
2021/12/22 11:37:49;;;;;;;22.05;13.45;;;1.30;99.90;;;;;;4970194;28;20070;-67
2021/12/22 11:40:19;;;;;;;21.48;12.75;;;1.20;99.90;;;;;;4969956;28;20066;-67
2021/12/22 11:42:45;;;;;;;27.50;12.03;;;1.10;99.90;;;;;;4969918;28;20503;-67
2021/12/22 11:45:17;;;;;;;26.00;15.18;;;1.20;99.90;;;;;;4967644;28;20030;-67
2021/12/22 11:47:50;;;;;;;27.33;14.77;;;1.30;99.90;;;;;;4969751;28;20085;-67
2021/12/22 11:50:23;;;;;;;23.63;13.52;;;1.40;99.90;;;;;;5002591;28;20368;-67
2021/12/22 11:53:08;;;;;;;24.45;12.55;;;1.50;99.90;;;;;;4969748;28;20049;-67
2021/12/22 11:55:42;;;;;;;21.67;13.10;;;1.70;99.90;;;;;;5002534;28;20305;-67
2021/12/22 11:58:21;;;;;;;21.48;12.52;;;2.00;99.90;;;;;;4969675;28;20046;-68
2021/12/22 12:01:09;;;;;;;23.48;13.82;;;2.10;99.90;;;;;;4969699;28;20569;-68
2021/12/22 12:03:37;;;;;;;25.85;14.25;;;2.10;99.90;;;;;;4953820;28;20047;-67
2021/12/22 12:06:16;;;;;;;24.02;13.25;;;1.90;99.90;;;;;;5002462;28;20149;-67
2021/12/22 12:08:47;;;;;;;19.95;12.60;;;1.70;99.90;;;;;;4969516;28;20100;-67
2021/12/22 12:11:17;;;;;;;21.88;12.32;;;1.70;99.90;;;;;;5002311;28;20129;-68
2021/12/22 12:13:49;;;;;;;20.65;12.77;;;1.70;99.90;;;;;;4967250;28;20051;-68
2021/12/22 12:22:11;;;;;;;22.20;12.75;;;1.20;99.90;;;;;;4992042;28;20099;-68
2021/12/22 12:24:47;;;;;;;21.98;13.05;;;1.00;99.90;;;;;;4991992;28;20397;-67
2021/12/22 12:27:32;;;;;;;20.50;12.85;;;0.90;99.90;;;;;;4991769;28;20077;-67
2021/12/22 12:29:59;;;;;;;25.85;11.70;;;0.80;99.90;;;;;;5024599;28;20048;-67
2021/12/22 12:32:40;;;;;;;21.83;11.60;;;0.70;99.90;;;;;;4992148;28;20037;-68
2021/12/22 12:35:19;;;;;;;23.63;14.13;;;0.60;99.90;;;;;;4975378;28;20134;-68
2021/12/22 12:38:17;;;;;;;24.45;13.13;;;0.60;99.90;;;;;;4975866;28;20059;-68
2021/12/22 12:40:54;;;;;;;19.30;11.77;;;0.50;99.90;;;;;;4972346;28;20051;-67
2021/12/22 12:43:42;;;;;;;23.73;12.18;;;0.40;99.90;;;;;;4970347;28;20132;-68
2021/12/22 12:46:24;;;;;;;22.98;12.45;;;0.40;99.90;;;;;;4972298;28;20119;-68
2021/12/22 12:49:06;;;;;;;27.05;15.70;;;0.30;99.90;;;;;;4956280;28;20038;-68
2021/12/22 12:51:34;;;;;;;20.45;12.68;;;0.30;99.90;;;;;;4972517;28;20414;-68
2021/12/22 12:54:25;;;;;;;23.25;13.13;;;0.30;99.90;;;;;;4972109;28;20085;-67
2021/12/22 12:56:54;;;;;;;20.40;11.38;;;0.40;99.90;;;;;;5004705;28;20054;-68
2021/12/22 12:59:26;;;;;;;22.30;12.00;;;0.40;99.90;;;;;;5004442;28;20559;-68
2021/12/22 13:01:52;;;;;;;21.42;12.50;;;0.40;99.90;;;;;;4972138;28;20046;-68
2021/12/22 13:04:29;;;;;;;21.35;13.05;;;0.30;99.90;;;;;;4972044;28;20035;-68
2021/12/22 13:07:01;;;;;;;24.10;13.25;;;0.30;99.90;;;;;;4955986;28;20042;-68